createdAt,value
2018-09-19T00:01:51.320Z,5.50
2018-09-19T00:04:19.665Z,3.07
2018-09-19T00:06:47.948Z,2.73
2018-09-19T00:09:16.222Z,2.30
2018-09-19T00:11:44.510Z,2.90
2018-09-19T00:14:12.786Z,2.93
2018-09-19T00:16:41.088Z,2.97
2018-09-19T00:19:09.382Z,2.50
2018-09-19T00:21:37.698Z,4.33
2018-09-19T00:24:06.004Z,2.53
2018-09-19T00:26:34.297Z,2.40
2018-09-19T00:29:02.685Z,4.10
2018-09-19T00:31:30.855Z,4.10
2018-09-19T00:33:59.158Z,5.07
2018-09-19T00:36:27.437Z,3.40
2018-09-19T00:38:55.733Z,2.50
2018-09-19T00:41:24.012Z,2.53
2018-09-19T00:43:52.837Z,2.73
2018-09-19T00:46:21.129Z,2.57
2018-09-19T00:48:49.432Z,2.50
2018-09-19T00:51:17.737Z,2.40
2018-09-19T00:53:46.058Z,2.83
2018-09-19T00:56:14.298Z,3.77
2018-09-19T00:58:42.598Z,3.30
2018-09-19T01:01:10.896Z,2.53
2018-09-19T01:03:39.183Z,2.40
2018-09-19T01:06:07.533Z,2.77
2018-09-19T01:08:35.800Z,2.60
2018-09-19T01:11:04.089Z,3.10
2018-09-19T01:13:32.364Z,3.67
2018-09-19T01:16:00.671Z,4.37
2018-09-19T01:18:28.968Z,3.83
2018-09-19T01:20:57.244Z,4.23
2018-09-19T01:23:25.520Z,4.17
2018-09-19T01:25:53.801Z,4.13
2018-09-19T01:28:22.225Z,2.60
2018-09-19T01:30:50.512Z,2.70
2018-09-19T01:33:18.798Z,3.60
2018-09-19T01:35:47.092Z,4.07
2018-09-19T01:38:15.377Z,3.37
2018-09-19T01:40:43.663Z,2.60
2018-09-19T01:43:11.949Z,2.70
2018-09-19T01:45:40.254Z,2.40
2018-09-19T01:48:08.553Z,2.87
2018-09-19T01:50:36.860Z,3.87
2018-09-19T01:53:05.170Z,6.03
2018-09-19T01:55:33.467Z,3.53
2018-09-19T01:58:01.756Z,4.67
2018-09-19T02:00:30.032Z,3.53
2018-09-19T02:02:58.288Z,2.50
2018-09-19T02:05:26.592Z,2.40
2018-09-19T02:07:54.861Z,2.83
2018-09-19T02:10:23.246Z,2.97
2018-09-19T02:12:51.521Z,2.37
2018-09-19T02:15:19.796Z,2.83
2018-09-19T02:17:48.086Z,5.10
2018-09-19T02:20:16.373Z,3.77
2018-09-19T02:22:44.656Z,3.93
2018-09-19T02:25:12.930Z,3.67
2018-09-19T02:27:41.200Z,3.40
2018-09-19T02:30:09.489Z,3.70
2018-09-19T02:32:37.781Z,2.70
2018-09-19T02:35:06.071Z,2.93
2018-09-19T02:37:34.356Z,3.00
2018-09-19T02:40:02.652Z,2.97
2018-09-19T02:42:30.916Z,3.83
2018-09-19T02:44:59.177Z,4.43
2018-09-19T02:47:27.469Z,3.40
2018-09-19T02:49:55.766Z,3.67
2018-09-19T02:52:24.051Z,3.33
2018-09-19T02:54:52.353Z,4.10
2018-09-19T02:57:20.633Z,2.80
2018-09-19T02:59:48.903Z,4.70
2018-09-19T03:02:17.179Z,5.30
2018-09-19T03:04:45.503Z,4.30
2018-09-19T03:07:13.717Z,3.93
2018-09-19T03:09:41.996Z,2.90
2018-09-19T03:12:10.302Z,3.50
2018-09-19T03:14:38.559Z,5.73
2018-09-19T03:17:06.870Z,2.83
2018-09-19T03:19:35.127Z,4.50
2018-09-19T03:22:03.401Z,8.50
2018-09-19T03:24:31.684Z,5.37
2018-09-19T03:26:59.954Z,2.60
2018-09-19T03:29:28.237Z,2.97
2018-09-19T03:31:56.524Z,3.13
2018-09-19T03:34:24.793Z,4.87
2018-09-19T03:36:53.075Z,3.53
2018-09-19T03:39:21.357Z,3.50
2018-09-19T03:41:49.640Z,3.23
2018-09-19T03:44:17.922Z,3.57
2018-09-19T03:46:46.208Z,3.70
2018-09-19T03:49:14.488Z,3.30
2018-09-19T03:51:42.764Z,3.73
2018-09-19T03:54:11.047Z,3.33
2018-09-19T03:56:39.326Z,3.33
2018-09-19T03:59:07.734Z,4.17
2018-09-19T04:01:35.988Z,3.90
2018-09-19T04:04:04.284Z,8.50
2018-09-19T04:06:32.560Z,3.80
2018-09-19T04:09:00.847Z,6.13
2018-09-19T04:11:29.133Z,5.73
2018-09-19T04:13:57.406Z,2.80
2018-09-19T04:16:25.700Z,4.73
2018-09-19T04:18:53.988Z,4.60
2018-09-19T04:21:22.281Z,2.93
2018-09-19T04:23:50.577Z,3.40
2018-09-19T04:26:18.886Z,3.63
2018-09-19T04:28:47.166Z,5.63
2018-09-19T04:31:15.436Z,3.73
2018-09-19T04:33:43.788Z,4.53
2018-09-19T04:36:12.067Z,4.63
2018-09-19T04:38:40.350Z,4.93
2018-09-19T04:41:08.635Z,4.70
2018-09-19T04:43:36.923Z,4.10
2018-09-19T04:46:05.222Z,5.87
2018-09-19T04:48:33.519Z,3.13
2018-09-19T04:51:01.777Z,4.93
2018-09-19T04:53:30.070Z,4.77
2018-09-19T04:55:58.345Z,3.50
2018-09-19T04:58:26.654Z,3.20
2018-09-19T05:00:54.964Z,3.50
2018-09-19T05:03:23.244Z,3.40
2018-09-19T05:05:51.599Z,3.43
2018-09-19T05:08:19.854Z,3.50
2018-09-19T05:10:48.148Z,3.93
2018-09-19T05:13:16.420Z,4.13
2018-09-19T05:15:44.708Z,3.97
2018-09-19T05:18:12.984Z,3.80
2018-09-19T05:20:41.271Z,3.57
2018-09-19T05:23:09.569Z,4.47
2018-09-19T05:25:37.846Z,7.20
2018-09-19T05:28:06.129Z,6.00
2018-09-19T05:30:34.396Z,4.80
2018-09-19T05:33:02.688Z,6.90
2018-09-19T05:35:30.986Z,3.73
2018-09-19T05:37:59.266Z,5.10
2018-09-19T05:40:27.550Z,6.30
2018-09-19T05:42:55.816Z,6.30
2018-09-19T05:45:24.104Z,4.47
2018-09-19T05:47:52.385Z,4.10
2018-09-19T05:50:20.672Z,4.20
2018-09-19T05:52:48.936Z,7.40
2018-09-19T05:55:17.218Z,4.13
2018-09-19T05:57:45.529Z,4.87
2018-09-19T06:00:13.801Z,4.07
2018-09-19T06:02:42.073Z,3.50
2018-09-19T06:05:10.397Z,6.90
2018-09-19T06:07:38.659Z,4.97
2018-09-19T06:10:06.969Z,5.77
2018-09-19T06:12:35.258Z,3.50
2018-09-19T06:15:03.582Z,3.60
2018-09-19T06:17:31.892Z,6.10
2018-09-19T06:20:00.164Z,5.70
2018-09-19T06:22:28.449Z,3.60
2018-09-19T06:24:56.724Z,3.97
2018-09-19T06:27:25.008Z,6.53
2018-09-19T06:29:53.285Z,3.20
2018-09-19T06:32:21.566Z,4.20
2018-09-19T06:34:49.829Z,4.70
2018-09-19T06:37:18.105Z,5.30
2018-09-19T06:39:46.384Z,5.00
2018-09-19T06:42:14.668Z,3.73
2018-09-19T06:44:42.953Z,3.30
2018-09-19T06:47:11.230Z,3.70
2018-09-19T06:49:39.573Z,5.57
2018-09-19T06:52:07.851Z,7.20
2018-09-19T06:54:36.086Z,4.97
2018-09-19T06:57:04.334Z,3.70
2018-09-19T06:59:32.701Z,3.60
2018-09-19T07:02:00.913Z,3.73
2018-09-19T07:04:29.196Z,4.90
2018-09-19T07:06:57.484Z,4.53
2018-09-19T07:09:25.750Z,4.23
2018-09-19T07:11:54.029Z,4.80
2018-09-19T07:14:22.289Z,5.80
2018-09-19T07:16:50.572Z,4.33
2018-09-19T07:19:18.848Z,4.93
2018-09-19T07:21:47.131Z,4.40
2018-09-19T07:24:15.535Z,3.63
2018-09-19T07:26:43.838Z,4.53
2018-09-19T07:29:12.175Z,7.67
2018-09-19T07:31:40.417Z,5.23
2018-09-19T07:34:08.716Z,5.33
2018-09-19T07:36:36.984Z,6.20
2018-09-19T07:39:08.334Z,3.93
2018-09-19T07:41:36.628Z,5.57
2018-09-19T07:44:04.924Z,3.80
2018-09-19T07:46:33.216Z,4.53
2018-09-19T07:49:01.460Z,5.23
2018-09-19T07:51:29.859Z,4.27
2018-09-19T07:53:58.141Z,4.80
2018-09-19T07:56:26.412Z,5.97
2018-09-19T07:58:54.688Z,6.50
2018-09-19T08:01:23.083Z,6.90
2018-09-19T08:03:51.258Z,5.43
2018-09-19T08:06:19.529Z,5.13
2018-09-19T08:08:47.812Z,4.30
2018-09-19T08:11:16.107Z,7.70
2018-09-19T08:13:44.382Z,4.67
2018-09-19T08:16:12.684Z,6.07
2018-09-19T08:18:40.949Z,7.40
2018-09-19T08:21:09.232Z,6.90
2018-09-19T08:23:37.512Z,4.47
2018-09-19T08:26:05.819Z,4.97
2018-09-19T08:28:34.111Z,6.73
2018-09-19T08:31:02.381Z,7.63
2018-09-19T08:33:30.656Z,5.27
2018-09-19T08:35:58.933Z,5.43
2018-09-19T08:38:27.209Z,5.30
2018-09-19T08:40:55.487Z,5.73
2018-09-19T08:43:23.764Z,7.83
2018-09-19T08:45:52.073Z,5.67
2018-09-19T08:48:20.519Z,5.40
2018-09-19T08:50:48.876Z,5.83
2018-09-19T08:53:17.181Z,5.97
2018-09-19T08:55:45.466Z,6.33
2018-09-19T08:58:13.733Z,6.37
2018-09-19T09:00:42.026Z,7.60
2018-09-19T09:03:10.313Z,6.23
2018-09-19T09:05:38.595Z,7.43
2018-09-19T09:08:07.959Z,7.40
2018-09-19T09:10:36.296Z,5.97
2018-09-19T09:13:04.576Z,5.67
2018-09-19T09:15:32.859Z,6.17
2018-09-19T09:18:01.141Z,5.90
2018-09-19T09:20:29.494Z,5.00
2018-09-19T09:22:57.705Z,5.43
2018-09-19T09:25:26.018Z,5.20
2018-09-19T09:27:54.294Z,6.00
2018-09-19T09:30:23.358Z,5.33
2018-09-19T09:32:51.636Z,7.00
2018-09-19T09:35:19.920Z,5.17
2018-09-19T09:37:48.344Z,5.10
2018-09-19T09:40:16.653Z,6.43
2018-09-19T09:42:44.925Z,6.37
2018-09-19T09:45:13.192Z,5.33
2018-09-19T09:47:41.492Z,5.17
2018-09-19T09:50:09.817Z,5.30
2018-09-19T09:52:38.048Z,5.17
2018-09-19T09:55:06.442Z,5.27
2018-09-19T09:57:34.692Z,5.20
2018-09-19T10:00:02.989Z,7.90
2018-09-19T10:02:31.281Z,5.00
2018-09-19T10:04:59.560Z,5.33
2018-09-19T10:07:27.829Z,6.53
2018-09-19T10:09:56.113Z,5.30
2018-09-19T10:12:24.422Z,5.80
2018-09-19T10:14:52.738Z,6.27
2018-09-19T10:17:21.020Z,5.77
2018-09-19T10:19:49.300Z,6.70
2018-09-19T10:22:17.592Z,6.80
2018-09-19T10:24:45.885Z,6.20
2018-09-19T10:27:14.156Z,7.93
2018-09-19T10:29:42.538Z,5.87
2018-09-19T10:32:10.736Z,5.80
2018-09-19T10:34:39.020Z,6.03
2018-09-19T10:37:07.567Z,8.80
2018-09-19T10:39:35.834Z,8.50
2018-09-19T10:42:04.141Z,8.47
2018-09-19T10:44:32.417Z,7.57
2018-09-19T10:47:00.702Z,8.13
2018-09-19T10:49:29.003Z,7.27
2018-09-19T10:51:57.284Z,6.73
2018-09-19T10:54:25.749Z,6.90
2018-09-19T10:56:54.086Z,7.43
2018-09-19T10:59:22.313Z,8.43
2018-09-19T11:01:50.579Z,7.87
2018-09-19T11:04:18.864Z,11.37
2018-09-19T11:06:47.157Z,9.43
2018-09-19T11:09:15.448Z,9.03
2018-09-19T11:11:44.584Z,10.67
2018-09-19T11:14:12.880Z,10.10
2018-09-19T11:16:41.149Z,9.43
2018-09-19T11:19:09.455Z,9.20
2018-09-19T11:21:37.808Z,11.27
2018-09-19T11:24:06.594Z,11.53
2018-09-19T11:26:34.918Z,8.93
2018-09-19T11:29:03.165Z,10.13
2018-09-19T11:31:31.493Z,9.23
2018-09-19T11:33:59.797Z,10.37
2018-09-19T11:36:28.084Z,11.20
2018-09-19T11:38:56.361Z,8.23
2018-09-19T11:41:24.640Z,9.47
2018-09-19T11:43:53.052Z,7.60
2018-09-19T11:46:21.341Z,10.30
2018-09-19T11:48:49.673Z,9.00
2018-09-19T11:51:17.893Z,7.83
2018-09-19T11:53:46.181Z,10.83
2018-09-19T11:56:14.481Z,9.10
2018-09-19T11:58:42.760Z,8.00
2018-09-19T12:01:11.072Z,8.67
2018-09-19T12:03:39.360Z,9.43
2018-09-19T12:06:07.648Z,7.30
2018-09-19T12:08:35.934Z,9.23
2018-09-19T12:11:04.235Z,8.53
2018-09-19T12:13:32.518Z,8.67
2018-09-19T12:16:00.793Z,7.07
2018-09-19T12:18:29.072Z,7.63
2018-09-19T12:20:57.373Z,7.60
2018-09-19T12:23:25.644Z,9.33
2018-09-19T12:25:53.940Z,8.17
2018-09-19T12:28:22.221Z,7.17
2018-09-19T12:30:50.513Z,8.50
2018-09-19T12:33:18.849Z,9.40
2018-09-19T12:35:47.116Z,7.30
2018-09-19T12:38:15.429Z,7.73
2018-09-19T12:40:43.696Z,7.93
2018-09-19T12:43:11.972Z,8.83
2018-09-19T12:45:40.245Z,6.67
2018-09-19T12:48:08.528Z,7.63
2018-09-19T12:50:36.813Z,7.47
2018-09-19T12:53:05.117Z,7.90
2018-09-19T12:55:33.397Z,7.77
2018-09-19T12:58:01.717Z,7.67
2018-09-19T13:00:29.993Z,8.47
2018-09-19T13:02:58.293Z,7.73
2018-09-19T13:05:26.597Z,7.30
2018-09-19T13:07:54.874Z,8.90
2018-09-19T13:10:23.166Z,7.57
2018-09-19T13:12:51.459Z,8.43
2018-09-19T13:15:19.740Z,6.90
2018-09-19T13:17:48.029Z,6.90
2018-09-19T13:20:16.334Z,9.30
2018-09-19T13:22:44.638Z,7.47
2018-09-19T13:25:12.936Z,9.13
2018-09-19T13:27:41.231Z,8.07
2018-09-19T13:30:09.521Z,8.03
2018-09-19T13:32:37.813Z,8.30
2018-09-19T13:35:06.108Z,5.93
2018-09-19T13:37:34.397Z,6.47
2018-09-19T13:40:02.701Z,7.47
2018-09-19T13:42:30.980Z,6.80
2018-09-19T13:44:59.280Z,5.90
2018-09-19T13:47:27.627Z,6.00
2018-09-19T13:49:58.814Z,6.50
2018-09-19T13:52:27.097Z,6.67
2018-09-19T13:54:55.377Z,6.00
2018-09-19T13:57:23.657Z,7.03
2018-09-19T13:59:51.949Z,8.50
2018-09-19T14:02:20.284Z,7.70
2018-09-19T14:04:48.572Z,5.87
2018-09-19T14:07:16.852Z,6.13
2018-09-19T14:09:45.124Z,8.43
2018-09-19T14:12:13.453Z,8.70
2018-09-19T14:14:41.689Z,10.03
2018-09-19T14:17:09.973Z,6.60
2018-09-19T14:19:38.279Z,6.70
2018-09-19T14:22:06.589Z,5.60
2018-09-19T14:24:34.883Z,8.60
2018-09-19T14:27:03.136Z,7.73
2018-09-19T14:29:31.457Z,6.57
2018-09-19T14:31:59.751Z,6.30
2018-09-19T14:34:28.071Z,6.47
2018-09-19T14:36:56.368Z,32.40
2018-09-19T14:39:24.673Z,14.73
2018-09-19T14:41:52.966Z,10.20
2018-09-19T14:44:21.251Z,8.00
2018-09-19T14:46:49.561Z,7.37
2018-09-19T14:49:17.839Z,7.07
2018-09-19T14:51:46.139Z,6.80
2018-09-19T14:54:14.446Z,8.50
2018-09-19T14:56:42.698Z,6.10
2018-09-19T14:59:10.983Z,6.27
2018-09-19T15:01:39.265Z,6.67
2018-09-19T15:04:07.562Z,7.53
2018-09-19T15:06:35.841Z,6.33
2018-09-19T15:09:06.066Z,9.33
2018-09-19T15:11:34.352Z,7.37
2018-09-19T15:14:02.641Z,6.10
2018-09-19T15:16:30.920Z,8.47
2018-09-19T15:18:59.919Z,5.90
2018-09-19T15:21:28.212Z,6.97
2018-09-19T15:23:56.481Z,5.97
2018-09-19T15:26:25.005Z,6.53
2018-09-19T15:28:53.403Z,7.77
2018-09-19T15:31:21.724Z,39.47
2018-09-19T15:33:50.018Z,7.20
2018-09-19T15:36:18.307Z,7.57
2018-09-19T15:38:46.606Z,9.57
2018-09-19T15:41:14.885Z,7.10
2018-09-19T15:43:43.161Z,5.30
2018-09-19T15:46:11.433Z,5.37
2018-09-19T15:48:39.708Z,5.83
2018-09-19T15:51:08.020Z,4.90
2018-09-19T15:53:36.313Z,6.50
2018-09-19T15:56:04.606Z,9.10
2018-09-19T15:58:32.876Z,6.13
2018-09-19T16:01:01.162Z,6.90
2018-09-19T16:03:29.483Z,5.03
2018-09-19T16:05:57.866Z,6.63
2018-09-19T16:08:26.073Z,6.90
2018-09-19T16:10:54.358Z,4.50
2018-09-19T16:13:22.645Z,6.87
2018-09-19T16:15:50.949Z,6.07
2018-09-19T16:18:19.209Z,5.83
2018-09-19T16:20:47.482Z,7.70
2018-09-19T16:23:15.767Z,5.80
2018-09-19T16:25:44.053Z,5.37
2018-09-19T16:28:12.335Z,4.90
2018-09-19T16:30:40.614Z,4.83
2018-09-19T16:33:08.880Z,5.10
2018-09-19T16:35:37.249Z,5.57
2018-09-19T16:38:05.808Z,12.07
2018-09-19T16:40:33.952Z,5.23
2018-09-19T16:43:02.241Z,5.27
2018-09-19T16:45:30.568Z,5.10
2018-09-19T16:47:58.812Z,9.53
2018-09-19T16:50:27.123Z,7.00
2018-09-19T16:52:55.748Z,6.03
2018-09-19T16:55:24.004Z,6.40
2018-09-19T16:57:52.409Z,5.37
2018-09-19T17:00:20.702Z,5.30
2018-09-19T17:02:49.000Z,6.20
2018-09-19T17:05:17.313Z,9.67
2018-09-19T17:07:45.624Z,14.80
2018-09-19T17:10:13.997Z,9.93
2018-09-19T17:12:42.289Z,9.17
2018-09-19T17:15:10.596Z,8.83
2018-09-19T17:17:38.897Z,7.07
2018-09-19T17:20:07.240Z,10.33
2018-09-19T17:22:35.595Z,8.43
2018-09-19T17:25:03.905Z,7.57
2018-09-19T17:27:32.196Z,8.97
2018-09-19T17:30:00.472Z,8.57
2018-09-19T17:32:28.784Z,7.37
2018-09-19T17:34:57.112Z,8.13
2018-09-19T17:37:25.556Z,8.90
2018-09-19T17:39:53.789Z,7.90
2018-09-19T17:42:22.090Z,6.70
2018-09-19T17:44:50.394Z,7.60
2018-09-19T17:47:18.675Z,7.30
2018-09-19T17:49:47.014Z,6.93
2018-09-19T17:52:15.276Z,8.33
2018-09-19T17:54:43.559Z,9.53
2018-09-19T17:57:11.870Z,7.73
2018-09-19T17:59:40.172Z,7.43
2018-09-19T18:02:08.466Z,6.80
2018-09-19T18:04:36.929Z,7.20
2018-09-19T18:07:05.381Z,12.40
2018-09-19T18:09:33.681Z,7.57
2018-09-19T18:12:01.952Z,10.00
2018-09-19T18:14:30.248Z,7.30
2018-09-19T18:16:58.705Z,7.17
2018-09-19T18:19:26.977Z,7.60
2018-09-19T18:21:55.262Z,7.40
2018-09-19T18:24:23.549Z,7.03
2018-09-19T18:26:51.838Z,7.90
2018-09-19T18:29:20.136Z,9.93
2018-09-19T18:31:48.405Z,9.63
2018-09-19T18:34:16.700Z,9.73
2018-09-19T18:36:44.977Z,8.93
2018-09-19T18:39:13.277Z,9.53
2018-09-19T18:41:41.630Z,9.27
2018-09-19T18:44:09.905Z,9.70
2018-09-19T18:46:38.184Z,8.77
2018-09-19T18:49:06.472Z,10.10
2018-09-19T18:51:34.757Z,10.03
2018-09-19T18:54:03.102Z,7.97
2018-09-19T18:56:31.385Z,8.03
2018-09-19T18:58:59.726Z,10.43
2018-09-19T19:01:28.000Z,12.07
2018-09-19T19:03:56.274Z,8.97
2018-09-19T19:06:24.556Z,9.03
2018-09-19T19:08:52.853Z,9.33
2018-09-19T19:11:21.260Z,10.00
2018-09-19T19:13:49.545Z,9.30
2018-09-19T19:16:18.108Z,10.00
2018-09-19T19:18:46.408Z,10.33
2018-09-19T19:21:14.745Z,9.07
2018-09-19T19:23:43.051Z,8.83
2018-09-19T19:26:11.325Z,9.37
2018-09-19T19:28:39.642Z,10.33
2018-09-19T19:31:07.927Z,10.07
2018-09-19T19:33:36.244Z,11.07
2018-09-19T19:36:04.536Z,10.30
2018-09-19T19:38:32.828Z,12.80
2018-09-19T19:41:01.113Z,12.17
2018-09-19T19:43:29.409Z,11.70
2018-09-19T19:45:57.696Z,11.20
2018-09-19T19:48:25.980Z,11.33
2018-09-19T19:50:54.272Z,10.67
2018-09-19T19:53:22.612Z,9.93
2018-09-19T19:55:50.848Z,10.43
2018-09-19T19:58:19.129Z,10.00
2018-09-19T20:00:47.415Z,9.70
2018-09-19T20:03:15.733Z,11.23
2018-09-19T20:05:43.984Z,12.90
2018-09-19T20:08:12.253Z,13.20
2018-09-19T20:10:40.625Z,11.73
2018-09-19T20:13:08.819Z,11.27
2018-09-19T20:15:37.084Z,19.40
2018-09-19T20:18:05.369Z,18.43
2018-09-19T20:20:33.641Z,14.33
2018-09-19T20:23:01.913Z,14.90
2018-09-19T20:25:30.182Z,13.63
2018-09-19T20:27:58.501Z,17.30
2018-09-19T20:30:26.774Z,16.27
2018-09-19T20:32:55.052Z,13.90
2018-09-19T20:35:23.313Z,13.37
2018-09-19T20:37:51.721Z,16.73
2018-09-19T20:40:19.985Z,14.43
2018-09-19T20:42:48.289Z,14.20
2018-09-19T20:45:16.583Z,13.23
2018-09-19T20:47:44.877Z,14.57
2018-09-19T20:50:13.164Z,12.20
2018-09-19T20:52:41.443Z,12.20
2018-09-19T20:55:09.697Z,11.93
2018-09-19T20:57:37.965Z,12.53
2018-09-19T21:00:06.266Z,11.83
2018-09-19T21:02:34.544Z,12.13
2018-09-19T21:05:02.845Z,14.57
2018-09-19T21:07:31.124Z,13.47
2018-09-19T21:09:59.387Z,14.50
2018-09-19T21:12:27.645Z,15.43
2018-09-19T21:14:55.904Z,13.33
2018-09-19T21:17:24.200Z,14.20
2018-09-19T21:19:52.505Z,13.13
2018-09-19T21:22:20.919Z,13.80
2018-09-19T21:24:49.141Z,13.43
2018-09-19T21:27:17.421Z,13.13
2018-09-19T21:29:45.722Z,13.83
2018-09-19T21:32:14.066Z,14.73
2018-09-19T21:34:42.309Z,15.33
2018-09-19T21:37:10.603Z,13.83
2018-09-19T21:39:38.889Z,13.77
2018-09-19T21:42:07.180Z,13.80
2018-09-19T21:44:35.469Z,14.03
2018-09-19T21:47:03.781Z,14.27
2018-09-19T21:49:32.057Z,14.63
2018-09-19T21:52:00.349Z,15.10
2018-09-19T21:54:28.632Z,15.53
2018-09-19T21:56:57.011Z,12.90
2018-09-19T21:59:25.290Z,13.50
2018-09-19T22:02:00.497Z,14.10
2018-09-19T22:04:28.909Z,13.57
2018-09-19T22:06:57.245Z,14.47
2018-09-19T22:09:25.537Z,11.60
2018-09-19T22:11:53.834Z,12.13
2018-09-19T22:14:22.120Z,12.70
2018-09-19T22:16:50.401Z,12.47
2018-09-19T22:19:18.704Z,12.63
2018-09-19T22:21:46.992Z,12.90
2018-09-19T22:24:15.299Z,12.83
2018-09-19T22:26:43.577Z,14.63
2018-09-19T22:29:11.878Z,12.73
2018-09-19T22:31:40.160Z,13.73
2018-09-19T22:34:08.451Z,15.10
2018-09-19T22:36:36.732Z,14.07
2018-09-19T22:39:07.224Z,12.60
2018-09-19T22:41:35.562Z,12.73
2018-09-19T22:44:03.873Z,11.40
2018-09-19T22:46:32.194Z,12.73
2018-09-19T22:49:00.480Z,12.10
2018-09-19T22:51:28.781Z,13.80
2018-09-19T22:53:57.097Z,11.50
2018-09-19T22:56:25.377Z,11.83
2018-09-19T22:58:53.660Z,13.90
2018-09-19T23:01:21.956Z,11.77
2018-09-19T23:03:50.261Z,12.17
2018-09-19T23:06:18.537Z,11.53
2018-09-19T23:08:46.873Z,11.83
2018-09-19T23:11:15.184Z,11.37
2018-09-19T23:13:43.468Z,11.57
2018-09-19T23:16:11.766Z,11.07
2018-09-19T23:18:40.040Z,10.27
2018-09-19T23:21:08.333Z,11.07
2018-09-19T23:23:36.694Z,12.60
2018-09-19T23:26:05.058Z,13.03
2018-09-19T23:28:33.353Z,11.30
2018-09-19T23:31:01.673Z,11.30
2018-09-19T23:33:29.951Z,10.87
2018-09-19T23:35:58.245Z,10.63
2018-09-19T23:38:26.561Z,12.10
2018-09-19T23:40:54.849Z,10.77
2018-09-19T23:43:23.145Z,10.33
2018-09-19T23:45:51.569Z,10.37
2018-09-19T23:48:19.857Z,10.90
2018-09-19T23:50:48.192Z,15.23
2018-09-19T23:53:16.561Z,11.50
2018-09-19T23:55:44.856Z,10.23
2018-09-19T23:58:13.148Z,10.53
